Time;durP1;ratioP1;P1;durP2;ratioP2;P2;SDS_P1;SDS_P2;PMS_P1;PMS_P2;Temp;Humidity;BMP_temperature;BMP_pressure;BME280_temperature;BME280_humidity;BME280_pressure;Samples;Min_cycle;Max_cycle;Signal;HPM_P1;HPM_P2
2021/01/22 00:01:44;;;;;;;125.43;68.70;;;;;;;5.79;69.96;99774.41;4950530;28;98465;-64
2021/01/22 00:04:10;;;;;;;123.60;69.40;;;;;;;5.82;70.20;99773.47;4947672;28;98435;-66
2021/01/22 00:06:37;;;;;;;116.10;63.35;;;;;;;5.83;69.89;99772.56;4954722;28;96541;-66
2021/01/22 00:09:04;;;;;;;129.60;68.05;;;;;;;5.79;70.21;99785.59;4954998;28;96633;-66
2021/01/22 00:11:31;;;;;;;125.35;69.00;;;;;;;5.59;71.08;99780.31;4952776;28;98565;-66
2021/01/22 00:13:57;;;;;;;120.72;67.15;;;;;;;5.60;71.30;99769.09;4946867;28;100845;-66
2021/01/22 00:16:24;;;;;;;138.93;65.70;;;;;;;5.67;70.90;99756.78;4943939;28;98857;-66
2021/01/22 00:18:50;;;;;;;119.63;64.63;;;;;;;5.74;70.58;99766.81;4945156;28;97025;-66
2021/01/22 00:21:16;;;;;;;114.32;65.78;;;;;;;5.83;69.63;99751.88;4945718;28;98518;-66
2021/01/22 00:23:43;;;;;;;114.60;60.97;;;;;;;5.79;69.87;99723.53;4946926;28;99817;-65
2021/01/22 00:26:09;;;;;;;114.95;61.17;;;;;;;5.83;69.99;99719.09;4945916;28;99875;-65
2021/01/22 00:28:35;;;;;;;118.68;69.43;;;;;;;5.66;70.50;99713.72;4946400;28;97280;-65
2021/01/22 00:31:02;;;;;;;125.93;65.10;;;;;;;5.75;69.93;99711.63;4943914;28;98539;-65
2021/01/22 00:33:28;;;;;;;122.95;64.40;;;;;;;5.81;69.74;99702.78;4943538;28;98679;-65
2021/01/22 00:35:55;;;;;;;125.65;67.57;;;;;;;5.83;70.00;99708.72;4928893;28;99525;-65
2021/01/22 00:38:21;;;;;;;121.25;69.30;;;;;;;5.69;69.99;99691.16;4946477;28;99199;-65
2021/01/22 00:40:47;;;;;;;129.15;70.15;;;;;;;5.60;70.95;99688.94;4943475;28;97538;-65
2021/01/22 00:43:14;;;;;;;118.63;63.95;;;;;;;5.49;71.53;99678.19;4944188;28;98683;-65
2021/01/22 00:45:40;;;;;;;129.88;73.13;;;;;;;5.56;70.80;99651.19;4945524;28;97842;-65
2021/01/22 00:48:07;;;;;;;118.68;69.90;;;;;;;5.61;70.64;99628.56;4943468;28;97219;-65
2021/01/22 00:50:33;;;;;;;129.65;69.00;;;;;;;5.54;71.04;99614.22;4942443;28;98753;-65
2021/01/22 00:53:01;;;;;;;127.35;64.68;;;;;;;5.35;71.42;99628.75;4943761;28;97510;-65
2021/01/22 00:55:29;;;;;;;138.73;76.03;;;;;;;5.51;71.84;99682.38;4928700;28;97791;-65
2021/01/22 00:58:19;;;;;;;126.93;68.68;;;;;;;5.35;72.37;99677.84;4939285;28;96689;-65
2021/01/22 01:00:47;;;;;;;131.73;68.05;;;;;;;5.34;71.96;99645.16;4942065;28;99761;-65
2021/01/22 01:03:26;;;;;;;130.18;70.72;;;;;;;5.23;71.93;99646.41;4926443;28;99974;-66
2021/01/22 01:05:53;;;;;;;135.88;69.80;;;;;;;5.26;72.84;99666.94;4918142;28;97538;-66
2021/01/22 01:08:20;;;;;;;130.13;71.03;;;;;;;5.47;71.88;99675.63;4941932;28;96888;-65
2021/01/22 01:11:09;;;;;;;131.52;67.97;;;;;;;5.37;72.16;99668.28;4945717;28;98928;-65
2021/01/22 01:13:56;;;;;;;131.43;71.80;;;;;;;5.06;72.89;99672.03;4927401;28;99653;-66
2021/01/22 01:16:23;;;;;;;120.43;67.93;;;;;;;5.32;72.53;99667.59;4939451;28;97496;-65
2021/01/22 01:18:50;;;;;;;122.15;62.85;;;;;;;5.38;72.02;99680.28;4944682;28;98122;-65
2021/01/22 01:21:16;;;;;;;129.50;64.72;;;;;;;5.36;72.04;99677.78;4944715;28;99033;-65
2021/01/22 01:23:43;;;;;;;125.43;69.05;;;;;;;5.31;72.33;99671.09;4941351;28;99507;-65
2021/01/22 01:26:09;;;;;;;117.35;65.45;;;;;;;5.41;72.21;99683.63;4944972;28;97016;-65
2021/01/22 01:28:35;;;;;;;111.32;65.10;;;;;;;5.46;71.89;99666.19;4942231;28;96857;-65
2021/01/22 01:31:02;;;;;;;133.52;73.65;;;;;;;5.53;71.51;99690.06;4941840;28;98640;-66
2021/01/22 01:33:28;;;;;;;122.70;64.93;;;;;;;5.50;72.19;99709.13;4941986;28;100689;-65
2021/01/22 01:35:54;;;;;;;125.50;67.05;;;;;;;5.43;72.15;99673.22;4943099;28;97152;-63
2021/01/22 01:38:21;;;;;;;116.53;70.30;;;;;;;5.50;71.84;99678.13;4926088;28;96651;-63
2021/01/22 01:40:47;;;;;;;131.02;66.68;;;;;;;5.27;72.62;99678.13;4943359;28;98394;-65
2021/01/22 01:43:14;;;;;;;124.03;71.43;;;;;;;5.18;73.67;99676.75;4942468;28;99248;-64
2021/01/22 01:45:41;;;;;;;130.65;71.50;;;;;;;5.34;72.86;99674.41;4941655;28;97317;-66
2021/01/22 01:48:11;;;;;;;124.78;67.22;;;;;;;5.31;73.02;99676.28;4942813;28;98528;-67
2021/01/22 01:50:39;;;;;;;111.80;65.95;;;;;;;5.57;71.82;99660.59;4938625;28;99192;-66
2021/01/22 01:53:05;;;;;;;127.07;72.55;;;;;;;5.54;72.09;99653.00;4942045;28;98813;-65
2021/01/22 01:55:32;;;;;;;119.75;66.35;;;;;;;5.43;72.60;99639.59;4942047;28;98006;-66
2021/01/22 01:57:58;;;;;;;126.22;70.65;;;;;;;5.24;72.99;99637.75;4946043;28;98569;-66
2021/01/22 02:00:25;;;;;;;125.50;67.03;;;;;;;5.31;72.80;99640.94;4924180;28;99500;-66
2021/01/22 02:02:52;;;;;;;116.75;66.25;;;;;;;5.46;72.68;99639.50;4927406;28;98750;-66
2021/01/22 02:05:18;;;;;;;117.07;63.30;;;;;;;5.51;72.37;99635.84;4944283;28;96962;-66
2021/01/22 02:07:45;;;;;;;128.35;69.70;;;;;;;5.66;71.60;99624.06;4942151;28;96731;-66
2021/01/22 02:10:11;;;;;;;123.43;70.80;;;;;;;5.51;71.62;99635.84;4942056;28;98520;-66
2021/01/22 02:12:38;;;;;;;113.97;66.13;;;;;;;5.46;72.35;99652.44;4907731;28;101071;-66
2021/01/22 02:15:06;;;;;;;126.70;70.53;;;;;;;5.44;71.96;99659.41;4924712;28;97910;-66
2021/01/22 02:17:33;;;;;;;125.72;68.82;;;;;;;5.49;71.82;99654.91;4928195;28;96913;-67
2021/01/22 02:20:21;;;;;;;138.35;67.50;;;;;;;5.45;72.45;99650.75;4909286;28;99952;-66
2021/01/22 02:22:48;;;;;;;123.03;65.03;;;;;;;5.53;71.79;99648.69;4927805;28;99005;-66
2021/01/22 02:25:14;;;;;;;119.65;63.97;;;;;;;5.55;71.96;99639.16;4939100;28;97448;-67
2021/01/22 02:27:41;;;;;;;114.03;64.47;;;;;;;5.55;72.08;99641.75;4911107;28;100173;-66
2021/01/22 02:30:07;;;;;;;121.65;67.40;;;;;;;5.47;71.75;99633.44;4926523;28;97738;-66
2021/01/22 02:32:34;;;;;;;118.18;64.32;;;;;;;5.59;71.74;99639.84;4911544;28;98640;-66
2021/01/22 02:35:07;;;;;;;120.15;66.95;;;;;;;5.46;71.97;99642.09;4923689;28;98558;-66
2021/01/22 02:37:34;;;;;;;125.00;68.45;;;;;;;5.50;71.87;99656.59;4910711;28;98034;-66
2021/01/22 02:40:06;;;;;;;119.05;63.33;;;;;;;5.59;71.62;99650.19;4924711;28;98579;-66
2021/01/22 02:42:33;;;;;;;115.93;65.13;;;;;;;5.59;71.78;99653.63;4939736;28;98652;-66
2021/01/22 02:44:59;;;;;;;115.63;61.58;;;;;;;5.53;72.20;99659.03;4910490;28;97872;-66
2021/01/22 02:47:26;;;;;;;111.18;63.95;;;;;;;5.43;72.35;99649.94;4928407;28;97892;-66
2021/01/22 02:49:53;;;;;;;115.32;62.40;;;;;;;5.53;72.38;99659.03;4908259;28;97628;-66
2021/01/22 02:52:19;;;;;;;118.32;64.20;;;;;;;5.40;72.67;99637.16;4942025;28;99218;-66
2021/01/22 02:54:49;;;;;;;121.53;67.45;;;;;;;5.50;72.40;99636.75;4937847;28;97121;-66
2021/01/22 02:57:20;;;;;;;123.07;68.63;;;;;;;5.68;71.44;99627.41;4937492;28;97767;-66
2021/01/22 03:00:19;;;;;;;123.90;69.07;;;;;;;5.60;71.42;99613.13;4942082;28;98416;-65
2021/01/22 03:02:46;;;;;;;126.22;63.72;;;;;;;5.51;71.68;99602.22;4924369;28;98415;-65
2021/01/22 03:05:15;;;;;;;124.72;68.88;;;;;;;5.50;71.92;99629.00;4938743;28;97207;-67
2021/01/22 03:07:46;;;;;;;131.30;73.28;;;;;;;5.57;72.24;99634.75;4928188;28;97679;-65
2021/01/22 03:10:16;;;;;;;128.93;69.68;;;;;;;5.51;72.01;99635.84;4927156;28;97358;-66
2021/01/22 03:12:46;;;;;;;121.07;65.97;;;;;;;5.62;71.78;99638.00;4944767;28;98622;-65
2021/01/22 03:15:14;;;;;;;134.10;74.72;;;;;;;5.43;72.28;99652.53;4920120;28;97387;-65
2021/01/22 03:17:41;;;;;;;137.13;69.72;;;;;;;5.57;72.26;99645.09;4923190;28;96754;-66
2021/01/22 03:20:10;;;;;;;132.88;70.13;;;;;;;5.53;72.33;99628.00;4939689;28;98981;-66
2021/01/22 03:22:37;;;;;;;129.50;66.13;;;;;;;5.52;72.26;99626.34;4923303;28;98597;-65
2021/01/22 03:25:04;;;;;;;135.35;70.53;;;;;;;5.52;71.98;99641.84;4942511;28;97275;-66
2021/01/22 03:27:31;;;;;;;137.25;66.60;;;;;;;5.23;73.30;99609.38;4942267;28;96804;-67
2021/01/22 03:29:57;;;;;;;130.00;68.75;;;;;;;5.46;72.64;99614.50;4939103;28;98593;-68
2021/01/22 03:32:23;;;;;;;127.35;68.43;;;;;;;5.58;72.32;99627.84;4942346;28;98595;-67
2021/01/22 03:34:50;;;;;;;125.63;65.00;;;;;;;5.50;72.78;99629.00;4943227;28;97686;-66
2021/01/22 03:37:16;;;;;;;125.15;68.55;;;;;;;5.51;72.49;99632.41;4942836;28;97057;-67
2021/01/22 03:39:43;;;;;;;131.45;67.05;;;;;;;5.66;72.22;99638.72;4925125;28;98564;-67
2021/01/22 03:42:10;;;;;;;128.70;67.85;;;;;;;5.64;72.37;99632.75;4942155;28;97481;-67
2021/01/22 03:44:36;;;;;;;113.40;63.80;;;;;;;5.60;72.28;99624.31;4938619;28;96911;-67
2021/01/22 03:47:06;;;;;;;108.50;60.97;;;;;;;5.70;72.18;99623.03;4938817;28;99228;-66
2021/01/22 03:49:33;;;;;;;108.10;58.47;;;;;;;5.74;71.69;99629.75;4943913;28;98928;-67
2021/01/22 03:52:00;;;;;;;120.15;66.20;;;;;;;5.72;71.83;99621.22;4942838;28;99355;-67
2021/01/22 03:54:27;;;;;;;121.60;62.70;;;;;;;5.52;72.47;99621.16;4938832;28;99292;-67
2021/01/22 03:56:54;;;;;;;112.25;65.43;;;;;;;5.53;71.95;99636.59;4936459;28;96936;-65
2021/01/22 03:59:21;;;;;;;113.57;58.38;;;;;;;5.47;72.80;99623.09;4944643;28;98593;-65
2021/01/22 04:01:47;;;;;;;114.90;62.33;;;;;;;5.45;72.41;99606.81;4936604;28;100499;-66
2021/01/22 04:04:14;;;;;;;109.93;61.55;;;;;;;5.53;72.78;99590.06;4938838;28;99404;-65
2021/01/22 04:07:00;;;;;;;118.75;63.72;;;;;;;5.49;72.71;99606.63;4941775;28;98897;-65
2021/01/22 04:09:28;;;;;;;115.28;60.88;;;;;;;5.52;72.75;99590.16;4940753;28;97712;-65
2021/01/22 04:11:54;;;;;;;112.30;61.67;;;;;;;5.63;72.03;99589.72;4943560;28;98642;-63
2021/01/22 04:14:20;;;;;;;98.93;59.25;;;;;;;5.59;72.31;99591.56;4939587;28;96689;-64
2021/01/22 04:16:46;;;;;;;105.38;57.88;;;;;;;5.51;72.68;99585.88;4940013;28;97657;-65
2021/01/22 04:19:13;;;;;;;99.20;56.35;;;;;;;5.51;72.75;99580.72;4941858;28;98452;-66
2021/01/22 04:21:39;;;;;;;92.72;55.03;;;;;;;5.56;72.70;99608.97;4937445;28;100779;-66
2021/01/22 04:24:06;;;;;;;114.50;61.33;;;;;;;5.66;72.79;99602.53;4938935;28;97322;-66
2021/01/22 04:26:32;;;;;;;100.78;58.30;;;;;;;5.62;72.63;99600.97;4943172;28;99059;-66
2021/01/22 04:28:59;;;;;;;95.78;55.88;;;;;;;5.43;73.50;99622.38;4943298;28;98467;-67
2021/01/22 04:31:25;;;;;;;103.80;60.08;;;;;;;5.47;73.03;99602.41;4942727;28;98604;-66
2021/01/22 04:33:51;;;;;;;102.32;57.05;;;;;;;5.37;73.55;99581.25;4925178;28;97600;-67
2021/01/22 04:36:18;;;;;;;104.57;57.50;;;;;;;5.40;73.62;99616.47;4928745;28;96719;-65
2021/01/22 04:38:44;;;;;;;110.38;60.58;;;;;;;5.63;73.09;99592.31;4942899;28;98582;-66
2021/01/22 04:41:11;;;;;;;110.97;63.38;;;;;;;5.52;73.27;99596.16;4941381;28;98587;-66
2021/01/22 04:43:44;;;;;;;110.15;62.75;;;;;;;5.68;72.69;99582.63;4942110;28;96546;-66
2021/01/22 04:46:13;;;;;;;108.65;61.42;;;;;;;5.52;72.79;99582.38;4942543;28;96702;-64
2021/01/22 04:48:39;;;;;;;106.32;62.20;;;;;;;5.45;73.58;99599.06;4947394;28;98594;-64
2021/01/22 04:51:06;;;;;;;106.90;59.88;;;;;;;5.59;73.29;99590.72;4950543;28;98566;-66
2021/01/22 04:53:34;;;;;;;100.22;58.42;;;;;;;5.54;73.44;99590.94;4926565;28;97455;-65
2021/01/22 04:56:01;;;;;;;111.65;60.85;;;;;;;5.45;73.25;99588.72;4942942;28;96930;-67
2021/01/22 04:58:28;;;;;;;106.95;59.08;;;;;;;5.52;73.02;99590.16;4927975;28;98617;-67
2021/01/22 05:00:54;;;;;;;110.65;62.55;;;;;;;5.75;72.42;99584.03;4928727;28;98496;-67
2021/01/22 05:03:26;;;;;;;104.25;63.78;;;;;;;5.69;72.44;99590.31;4926009;28;97308;-67
2021/01/22 05:05:56;;;;;;;102.75;61.10;;;;;;;5.63;72.95;99567.28;4946391;28;97047;-67
2021/01/22 05:08:22;;;;;;;108.22;64.85;;;;;;;5.70;72.75;99555.81;4943910;28;99283;-67
2021/01/22 05:10:49;;;;;;;97.57;57.00;;;;;;;5.62;72.87;99554.44;4941671;28;97211;-66
2021/01/22 05:13:15;;;;;;;102.53;58.17;;;;;;;5.72;73.27;99566.06;4947796;28;96569;-67
2021/01/22 05:15:42;;;;;;;106.18;65.35;;;;;;;5.70;73.08;99560.97;4948132;28;96515;-66
2021/01/22 05:18:08;;;;;;;102.50;60.47;;;;;;;5.70;72.96;99545.47;4946469;28;97703;-67
2021/01/22 05:20:35;;;;;;;98.40;58.45;;;;;;;5.71;73.39;99554.06;4947077;28;98402;-66
2021/01/22 05:23:03;;;;;;;100.38;58.47;;;;;;;5.54;73.48;99539.25;4948435;28;96618;-66
2021/01/22 05:25:30;;;;;;;101.03;60.00;;;;;;;5.73;73.00;99560.84;4941730;28;97484;-65
2021/01/22 05:27:57;;;;;;;104.63;62.03;;;;;;;5.67;73.44;99563.69;4946298;28;98478;-66
2021/01/22 05:30:28;;;;;;;101.50;62.58;;;;;;;5.73;73.15;99568.59;4946034;28;98705;-64
2021/01/22 05:33:30;;;;;;;100.55;57.95;;;;;;;5.56;73.50;99550.34;4945586;28;96644;-65
2021/01/22 05:35:57;;;;;;;102.40;60.13;;;;;;;5.59;73.80;99541.59;4851878;29;96894;-63
2021/01/22 05:38:42;;;;;;;87.88;54.90;;;;;;;5.61;73.49;99538.06;4927856;28;98652;-65
2021/01/22 05:41:08;;;;;;;93.53;59.00;;;;;;;5.69;73.69;99561.03;4945886;28;98502;-63
2021/01/22 05:43:36;;;;;;;90.45;56.97;;;;;;;5.71;73.07;99554.06;4947394;28;96578;-63
2021/01/22 05:46:02;;;;;;;92.32;57.08;;;;;;;5.56;73.66;99552.94;4947011;28;96697;-65
2021/01/22 05:48:29;;;;;;;99.10;57.05;;;;;;;5.65;72.93;99565.50;4944369;28;99892;-65
2021/01/22 05:50:59;;;;;;;96.18;56.95;;;;;;;5.64;73.51;99584.47;4945624;28;98518;-65
2021/01/22 05:53:26;;;;;;;86.65;53.45;;;;;;;5.53;73.68;99571.97;4943870;28;99381;-65
2021/01/22 05:56:09;;;;;;;95.53;59.60;;;;;;;5.60;73.41;99564.00;4943505;28;98378;-65
2021/01/22 05:58:37;;;;;;;92.10;56.30;;;;;;;5.53;73.24;99565.97;4941396;28;99262;-65
2021/01/22 06:01:07;;;;;;;94.70;57.38;;;;;;;5.60;73.00;99564.00;4942715;28;98853;-65
2021/01/22 06:03:34;;;;;;;104.05;57.72;;;;;;;5.59;73.29;99562.28;4924436;28;97222;-65
2021/01/22 06:06:01;;;;;;;93.60;55.42;;;;;;;5.59;73.55;99557.97;4940799;28;96964;-65
2021/01/22 06:08:27;;;;;;;92.00;57.05;;;;;;;5.46;74.02;99524.03;4945455;28;98483;-65
2021/01/22 06:10:54;;;;;;;83.65;53.58;;;;;;;5.63;73.29;99515.56;4944872;28;98488;-66
2021/01/22 06:13:24;;;;;;;89.88;54.22;;;;;;;5.42;74.44;99575.91;4942683;28;97861;-65
2021/01/22 06:15:55;;;;;;;88.30;54.10;;;;;;;5.62;73.52;99547.50;4944303;28;98362;-65
2021/01/22 06:18:23;;;;;;;95.57;53.30;;;;;;;5.53;73.91;99535.78;4937765;28;98704;-65
2021/01/22 06:20:50;;;;;;;92.43;52.90;;;;;;;5.65;73.20;99560.31;4928230;28;98523;-66
2021/01/22 06:23:16;;;;;;;82.95;51.13;;;;;;;5.66;73.56;99567.16;4943347;28;99853;-66
2021/01/22 06:25:44;;;;;;;89.55;55.75;;;;;;;5.62;73.81;99591.47;4920465;28;96740;-65
2021/01/22 06:28:11;;;;;;;76.15;50.47;;;;;;;5.54;74.10;99578.03;4944059;28;98560;-66
2021/01/22 06:30:38;;;;;;;83.40;49.90;;;;;;;5.57;74.00;99548.59;4951905;28;98475;-66
2021/01/22 06:33:06;;;;;;;83.93;50.50;;;;;;;5.76;73.31;99568.47;4952042;28;96662;-66
2021/01/22 06:35:35;;;;;;;79.88;48.58;;;;;;;5.71;73.14;99559.22;4951472;28;96576;-66
2021/01/22 06:38:03;;;;;;;81.65;50.25;;;;;;;5.72;72.91;99515.19;4951683;28;98705;-66
2021/01/22 06:40:30;;;;;;;75.90;47.55;;;;;;;5.62;73.64;99518.22;4951698;28;98544;-66
2021/01/22 06:42:56;;;;;;;67.35;47.47;;;;;;;5.69;73.33;99524.81;4951963;28;97084;-69
2021/01/22 06:45:24;;;;;;;70.78;43.08;;;;;;;5.63;73.33;99546.59;4951999;28;96699;-69
2021/01/22 06:48:06;;;;;;;70.13;42.63;;;;;;;5.68;73.63;99543.81;4951386;28;97634;-69
2021/01/22 06:50:34;;;;;;;64.13;41.42;;;;;;;5.59;73.68;99545.03;4951840;28;98456;-68
2021/01/22 06:53:14;;;;;;;61.97;40.42;;;;;;;5.69;73.35;99548.09;4951783;28;96570;-68
2021/01/22 06:55:52;;;;;;;61.42;41.35;;;;;;;5.84;73.04;99549.22;4946912;28;96573;-68
2021/01/22 06:58:29;;;;;;;61.53;38.53;;;;;;;5.77;73.15;99564.97;4951255;28;98512;-68
2021/01/22 07:00:59;;;;;;;63.72;40.92;;;;;;;5.70;73.50;99536.84;4951758;28;98507;-67
2021/01/22 07:03:35;;;;;;;61.78;41.25;;;;;;;5.73;73.79;99511.69;4951157;28;96543;-68
2021/01/22 07:06:08;;;;;;;62.63;39.42;;;;;;;5.61;75.00;99545.84;4950601;28;96697;-68
2021/01/22 07:08:49;;;;;;;60.05;39.65;;;;;;;5.69;74.28;99535.16;4951204;28;98546;-67
2021/01/22 07:11:16;;;;;;;62.97;40.25;;;;;;;5.67;74.01;99526.63;4951516;28;98446;-67
2021/01/22 07:13:43;;;;;;;60.80;39.38;;;;;;;5.77;73.42;99515.84;4950858;28;96572;-66
2021/01/22 07:16:10;;;;;;;59.30;40.15;;;;;;;5.63;73.48;99525.91;4951470;28;96656;-65
2021/01/22 07:18:57;;;;;;;58.53;39.85;;;;;;;5.66;73.68;99524.97;4944411;28;98771;-66
2021/01/22 07:21:37;;;;;;;55.55;36.60;;;;;;;5.68;74.00;99523.97;4942339;28;98450;-64
2021/01/22 07:24:15;;;;;;;58.42;38.28;;;;;;;5.79;73.63;99520.94;4932137;28;97126;-66
2021/01/22 07:26:45;;;;;;;59.13;38.53;;;;;;;5.89;73.02;99513.66;4945329;28;96549;-72
2021/01/22 07:29:24;;;;;;;50.85;34.22;;;;;;;5.82;72.59;99522.59;4946018;28;98112;-67
2021/01/22 07:32:07;;;;;;;57.40;40.17;;;;;;;5.66;73.23;99530.13;4945135;28;98621;-67
2021/01/22 07:34:43;;;;;;;59.10;36.00;;;;;;;5.72;73.41;99522.97;4948465;28;96852;-68
2021/01/22 07:37:14;;;;;;;57.28;35.30;;;;;;;5.87;73.00;99533.56;4942453;28;97031;-67
2021/01/22 07:39:41;;;;;;;62.35;40.33;;;;;;;5.77;73.23;99546.88;4949136;28;98644;-67
2021/01/22 07:42:11;;;;;;;60.45;42.63;;;;;;;5.66;73.35;99550.81;4948334;28;98415;-67
2021/01/22 07:44:43;;;;;;;50.95;34.28;;;;;;;5.77;73.41;99551.22;4948881;28;96921;-66
2021/01/22 07:47:10;;;;;;;50.03;34.60;;;;;;;5.72;73.68;99551.41;4943435;28;97546;-67
2021/01/22 07:49:57;;;;;;;45.85;33.65;;;;;;;5.79;73.39;99542.47;4950990;28;98623;-68
2021/01/22 07:52:24;;;;;;;45.70;31.85;;;;;;;5.90;72.87;99554.97;4950731;28;98584;-68
2021/01/22 07:54:51;;;;;;;45.45;32.33;;;;;;;5.96;72.82;99549.56;4950564;28;96600;-69
2021/01/22 07:57:27;;;;;;;42.08;30.77;;;;;;;6.00;73.02;99545.94;4950643;28;98096;-68
2021/01/22 07:59:53;;;;;;;46.10;32.03;;;;;;;6.20;72.79;99546.84;4950888;28;98620;-66
2021/01/22 08:02:21;;;;;;;40.58;27.98;;;;;;;6.26;72.97;99534.47;4951116;28;98484;-69
2021/01/22 08:04:55;;;;;;;34.72;27.67;;;;;;;6.35;72.61;99529.81;4933462;28;96660;-69
2021/01/22 08:07:31;;;;;;;43.28;32.30;;;;;;;6.16;72.55;99530.59;4950005;28;96794;-69
2021/01/22 08:09:58;;;;;;;40.47;28.45;;;;;;;6.25;72.46;99539.72;4945509;28;98519;-69
2021/01/22 08:12:24;;;;;;;34.22;25.90;;;;;;;6.15;71.58;99534.09;4938107;28;98596;-69
2021/01/22 08:14:51;;;;;;;36.17;26.13;;;;;;;6.05;72.44;99519.88;4937538;28;99643;-69
2021/01/22 08:17:19;;;;;;;36.17;25.35;;;;;;;6.23;71.63;99521.69;4938012;28;99537;-69
2021/01/22 08:19:45;;;;;;;35.00;24.70;;;;;;;6.25;71.57;99525.03;4925312;28;97773;-69
2021/01/22 08:22:15;;;;;;;36.28;27.50;;;;;;;6.33;71.16;99527.28;4925226;28;98448;-70
2021/01/22 08:24:49;;;;;;;34.83;26.17;;;;;;;6.36;71.90;99518.56;4946076;28;99723;-69
2021/01/22 08:27:22;;;;;;;32.92;25.08;;;;;;;6.37;71.54;99509.88;4929117;28;97159;-69
2021/01/22 08:29:48;;;;;;;39.30;29.17;;;;;;;6.22;71.86;99522.56;4939422;28;98739;-68
2021/01/22 08:32:16;;;;;;;35.00;26.73;;;;;;;6.23;72.65;99515.63;4944144;28;98768;-68
2021/01/22 08:34:42;;;;;;;37.03;27.00;;;;;;;6.29;71.25;99511.06;4927274;28;97091;-68
2021/01/22 08:37:09;;;;;;;34.15;26.33;;;;;;;6.22;71.58;99514.81;4927553;28;96961;-69
2021/01/22 08:40:00;;;;;;;36.33;27.20;;;;;;;6.38;71.49;99521.91;4927542;28;98637;-69
2021/01/22 08:42:29;;;;;;;35.78;26.27;;;;;;;6.62;70.09;99507.88;4942017;28;98525;-69
2021/01/22 08:44:59;;;;;;;32.53;25.40;;;;;;;6.60;70.32;99507.06;4944497;28;97250;-69
2021/01/22 08:47:28;;;;;;;32.05;25.63;;;;;;;6.66;70.43;99499.06;4945233;28;97096;-69
2021/01/22 08:50:01;;;;;;;33.67;25.15;;;;;;;6.92;69.27;99502.16;4944008;28;98509;-68
2021/01/22 08:52:28;;;;;;;39.72;27.13;;;;;;;6.78;69.84;99501.06;4913794;28;98616;-69
2021/01/22 08:54:58;;;;;;;32.35;25.45;;;;;;;6.82;69.62;99494.84;4946601;28;97272;-69
2021/01/22 08:57:29;;;;;;;36.92;27.20;;;;;;;6.88;69.56;99506.66;4943804;28;97729;-69
2021/01/22 08:59:57;;;;;;;39.85;28.75;;;;;;;6.59;70.35;99510.59;4942240;28;98728;-68
2021/01/22 09:02:37;;;;;;;37.50;26.98;;;;;;;6.48;71.09;99499.88;4943444;28;98489;-69
2021/01/22 09:05:13;;;;;;;38.60;26.95;;;;;;;6.68;69.85;99494.63;4942702;28;97742;-69
2021/01/22 09:07:40;;;;;;;37.67;27.83;;;;;;;6.91;69.65;99508.25;4939004;28;96889;-69
2021/01/22 09:10:27;;;;;;;40.78;30.15;;;;;;;6.69;70.58;99500.66;4941372;28;98820;-69
2021/01/22 09:12:54;;;;;;;34.60;28.33;;;;;;;6.77;70.70;99489.03;4929421;28;98905;-69
2021/01/22 09:15:20;;;;;;;37.25;28.92;;;;;;;6.90;69.44;99485.88;4943392;28;97022;-69
2021/01/22 09:17:50;;;;;;;40.10;30.25;;;;;;;6.85;69.59;99495.59;4942567;28;97293;-68
2021/01/22 09:20:29;;;;;;;38.58;29.17;;;;;;;6.57;70.34;99489.94;4941237;28;98472;-69
2021/01/22 09:23:02;;;;;;;42.17;27.58;;;;;;;6.75;69.59;99493.44;4943336;28;98380;-69
2021/01/22 09:25:28;;;;;;;40.60;29.98;;;;;;;6.73;70.06;99497.00;4940598;28;98157;-69
2021/01/22 09:27:55;;;;;;;42.75;33.65;;;;;;;6.74;69.71;99502.13;4944252;28;96760;-68
2021/01/22 09:30:25;;;;;;;41.00;32.50;;;;;;;6.62;70.29;99496.66;4944060;28;98809;-68
2021/01/22 09:32:53;;;;;;;40.30;31.45;;;;;;;6.59;70.91;99486.44;4941653;28;99836;-68
2021/01/22 09:35:20;;;;;;;43.08;32.55;;;;;;;6.68;70.71;99507.59;4945336;28;101352;-69
2021/01/22 09:37:47;;;;;;;42.58;32.03;;;;;;;6.61;70.68;99500.19;4943277;28;97355;-69
2021/01/22 09:40:14;;;;;;;43.33;31.65;;;;;;;6.59;70.90;99483.84;4944241;28;98584;-68
2021/01/22 09:42:40;;;;;;;44.28;31.75;;;;;;;6.55;70.68;99496.94;4943517;28;98599;-68
2021/01/22 09:45:08;;;;;;;47.30;33.55;;;;;;;6.36;71.56;99462.44;4941738;28;99120;-68
2021/01/22 09:47:34;;;;;;;44.08;30.65;;;;;;;6.49;70.92;99491.19;4945175;28;96635;-68
2021/01/22 09:50:05;;;;;;;49.13;33.33;;;;;;;6.48;70.62;99489.50;4924696;28;98562;-69
2021/01/22 09:52:33;;;;;;;42.30;32.63;;;;;;;6.46;71.24;99484.41;4943888;28;98601;-68
2021/01/22 09:55:00;;;;;;;48.80;32.08;;;;;;;6.24;72.14;99479.38;4942431;28;96732;-69
2021/01/22 09:57:28;;;;;;;45.13;31.35;;;;;;;6.47;71.54;99467.13;4944564;28;98026;-69
2021/01/22 09:59:55;;;;;;;46.45;32.78;;;;;;;6.52;71.29;99460.81;4943134;28;99146;-69
2021/01/22 10:02:21;;;;;;;46.97;34.17;;;;;;;6.68;71.16;99458.38;4943039;28;98475;-68
2021/01/22 10:04:48;;;;;;;46.60;33.78;;;;;;;6.48;70.57;99463.63;4942449;28;98567;-69
2021/01/22 10:07:14;;;;;;;48.53;33.92;;;;;;;6.41;71.19;99452.72;4944101;28;96735;-68
2021/01/22 10:09:41;;;;;;;50.95;36.13;;;;;;;6.38;71.70;99426.13;4941195;28;98759;-68
2021/01/22 10:12:08;;;;;;;45.17;30.90;;;;;;;6.61;70.63;99422.47;4940964;28;98809;-68
2021/01/22 10:14:35;;;;;;;41.33;30.80;;;;;;;6.69;70.25;99439.31;4944563;28;96731;-68
2021/01/22 10:17:02;;;;;;;50.10;34.33;;;;;;;6.59;70.33;99432.88;4943627;28;97926;-68
2021/01/22 10:19:33;;;;;;;46.47;35.17;;;;;;;6.70;71.11;99451.34;4943339;28;98573;-68
2021/01/22 10:21:59;;;;;;;44.17;30.63;;;;;;;6.49;71.33;99439.41;4941929;28;99566;-69
2021/01/22 10:24:26;;;;;;;45.05;34.38;;;;;;;6.41;70.50;99421.66;4925999;28;96657;-69
2021/01/22 10:26:52;;;;;;;42.08;32.03;;;;;;;6.66;70.69;99421.34;4945086;28;96779;-68
2021/01/22 10:29:18;;;;;;;46.50;35.35;;;;;;;6.74;69.81;99424.41;4924354;28;98471;-68
2021/01/22 10:31:45;;;;;;;49.65;34.30;;;;;;;6.78;70.11;99428.53;4942547;28;98540;-68
2021/01/22 10:34:11;;;;;;;44.92;31.75;;;;;;;6.86;69.54;99411.78;4938990;28;99757;-68
2021/01/22 10:36:38;;;;;;;46.95;33.88;;;;;;;6.70;70.40;99399.56;4927030;28;96787;-69
2021/01/22 10:39:04;;;;;;;46.10;30.85;;;;;;;6.86;69.76;99419.56;4910120;28;100275;-69
2021/01/22 10:41:31;;;;;;;42.13;31.75;;;;;;;6.98;69.51;99401.69;4944676;28;98461;-69
2021/01/22 10:43:57;;;;;;;44.58;33.28;;;;;;;6.83;69.99;99403.25;4944039;28;96659;-68
2021/01/22 10:46:24;;;;;;;45.72;33.55;;;;;;;6.80;70.38;99385.25;4941381;28;97193;-68
2021/01/22 10:48:50;;;;;;;44.05;31.77;;;;;;;6.51;71.32;99372.88;4942705;28;98505;-68
2021/01/22 10:51:17;;;;;;;47.47;35.83;;;;;;;6.78;70.64;99358.59;4924537;28;99082;-68
2021/01/22 10:53:43;;;;;;;42.97;32.45;;;;;;;6.90;69.99;99369.28;4936833;28;98217;-68
2021/01/22 10:56:09;;;;;;;44.80;31.83;;;;;;;7.04;70.03;99361.69;4923075;28;98151;-68
2021/01/22 10:58:37;;;;;;;44.97;32.08;;;;;;;6.85;69.37;99363.47;4936386;28;98792;-69
2021/01/22 11:01:04;;;;;;;41.72;30.27;;;;;;;6.72;70.14;99360.66;4943394;28;99247;-68
2021/01/22 11:03:32;;;;;;;44.55;28.70;;;;;;;6.81;70.27;99361.03;4928816;28;97330;-68
2021/01/22 11:05:58;;;;;;;36.95;30.52;;;;;;;6.82;69.45;99354.97;4944501;28;96882;-68
2021/01/22 11:08:24;;;;;;;40.53;28.02;;;;;;;6.98;69.48;99343.84;4938927;28;98585;-68
2021/01/22 11:10:51;;;;;;;46.33;31.83;;;;;;;7.09;69.52;99328.59;4943896;28;98651;-68
2021/01/22 11:13:17;;;;;;;39.00;29.52;;;;;;;7.12;69.18;99331.00;4942229;28;96805;-68
2021/01/22 11:15:43;;;;;;;42.28;29.98;;;;;;;7.17;69.74;99318.66;4937393;28;98910;-68
2021/01/22 11:18:10;;;;;;;39.38;29.42;;;;;;;7.14;69.51;99308.47;4942736;28;99481;-68
2021/01/22 11:20:39;;;;;;;40.80;28.20;;;;;;;7.24;68.55;99306.22;4925623;28;98667;-69
2021/01/22 11:23:06;;;;;;;48.25;30.02;;;;;;;7.23;68.37;99287.25;4943323;28;99788;-68
2021/01/22 11:25:32;;;;;;;39.47;29.45;;;;;;;7.19;68.57;99280.56;4943750;28;97092;-69
2021/01/22 11:27:59;;;;;;;43.42;29.60;;;;;;;7.23;68.54;99286.41;4942341;28;98303;-68
2021/01/22 11:30:25;;;;;;;41.13;29.95;;;;;;;7.29;68.05;99276.56;4941452;28;98768;-68